Racecast

Niya Coleman-King

Cosumnes Oaks (CA) · 12 · PAC · Compare head to head

Athlete rating
Races 97
Seasons 5 2017 — 2026

Track & Field

2026 TF

Cosumnes Oaks (CA) · Grade 12

Date Meet Event Result Place Rating Difficulty PR/SR Flags
2026-05-30 106th CIF State T&F Champs Preilims & Finals 2026 200m 24.64 28th · 1st on team -0.066
2026-05-23 SJS Masters Championships Finals 200m 24.6 3rd · 1st on team -0.024
2026-05-23 SJS Masters Championships Finals 100m 12.15 4th · 1st on team -0.024
2026-05-16 SJS Division Finals (All Divisions)/Masters Trials 200m 24.73 2nd · 1st on team -0.036
2026-05-16 SJS Division Finals (All Divisions)/Masters Trials 100m 12.03 1st · 1st on team -0.036
2026-05-09 SJS DI Championships Trials 100m 12.14 1st · 1st on team -0.024
2026-05-09 SJS DI Championships Trials 200m 24.76 1st · 1st on team -0.024
2026-05-01 Delta League Varsity & Frosh/Soph Championships 100m 12.03 1st · 1st on team -0.041 SR
2026-05-01 Delta League Varsity & Frosh/Soph Championships 200m 24.99 1st · 1st on team -0.041
2026-04-11 Arcadia Invitational 2026 200m 24.57 9th · 1st on team -0.046 SR
2026-04-11 Arcadia Invitational 2026 100m 12.05 18th · 1st on team -0.046 SR
2026-04-03 Stanford Invite 100m 12.26 40th · 1st on team -0.045
2026-03-25 Delta League Meet #1 200m 25.09 1st · 1st on team -0.041 SR
2026-03-20 Capital Invitational 100m 12.25 2nd · 1st on team -0.036
2026-03-14 Wolf Pack Relays 100m 12.09 1st · 1st on team -0.035 SR
2026-02-07 VS Athletics - CA Winter Championships 60m 7.79 35th · 1st on team -0.046 ★PR SR
2026-02-07 VS Athletics - CA Winter Championships 60m 7.88 60th · 2nd on team -0.046
2026-02-07 VS Athletics - CA Winter Championships 150m 18.72 24th · 1st on team -0.046
2026-01-31 USATF Pacific Reno Indoor Track & Field Championships 200m 25.54 3rd · 1st on team -0.025 SR
2026-01-31 USATF Pacific Reno Indoor Track & Field Championships 60m 7.93 3rd · 1st on team -0.025 PR SR
2026-01-24 2026 California Winter Championship Qualifiers 150m 18.49 3rd · 1st on team -0.043 ★PR SR
2026-01-24 2026 California Winter Championship Qualifiers 60m 7.94 2nd · 1st on team -0.043 PR SR
2026-01-18 Reno Indoor Track MLK Invite 200m 25.94 2nd · 2nd on team -0.025 SR
2026-01-18 Reno Indoor Track MLK Invite 55m 7.43 2nd · 2nd on team -0.025 ★PR SR

2025 TF

Unattached (TX) · Grade 11

Date Meet Event Result Place Rating Difficulty PR/SR Flags
2025-06-26 West Coast National Championship 200m 25.26 9th · 6th on team -0.017
2025-06-26 West Coast National Championship 200m 24.79 7th · 5th on team -0.017
2025-06-22 Nike Outdoor Nationals 100m 12.34 47th · 1st on team -0.039
2025-06-22 Nike Outdoor Nationals 200m 25.34 59th · 1st on team -0.039
2025-06-13 USATF Pacific Association Jr Olympic Championships 100m 12.21 4th · 2nd on team -0.040
2025-06-13 USATF Pacific Association Jr Olympic Championships 100m 12.13 3rd · 1st on team -0.040
2025-06-05 Great Southwest 100m 11.96 4th · 1st on team -0.012
2025-06-05 Great Southwest 200m 24.61 8th · 1st on team -0.012
2025-05-24 CIF Masters Finals 2025 200m 24.46 6th · 1st on team -0.028 ★PR SR
2025-05-24 CIF Masters Finals 2025 100m 11.9 5th · 1st on team -0.028 ★PR SR
2025-05-24 CIF Masters Finals 2025 200m 24.62 8th · 2nd on team -0.028
2025-05-24 CIF Masters Finals 2025 100m 12.28 9th · 2nd on team -0.028
2025-05-02 Delta League Varsity & Frosh/Soph Championships Finals 100m 12.24 1st · 1st on team -0.041 PR SR
2025-05-02 Delta League Varsity & Frosh/Soph Championships Finals 200m 25.18 1st · 1st on team -0.041
2025-04-26 2025 Sacramento Meet of Champions 200m 24.97 5th · 1st on team -0.039 PR SR
2025-04-11 2025 14th Tiger Invitational 200m 25.2 2nd · 1st on team -0.044 PR SR
2025-04-04 Stanford Invitational 100m 12.42 21st · 2nd on team -0.045
2025-03-25 Delta League Center Meet #1 400m 1:00.14 2nd · 1st on team -0.041 ★PR SR
2025-03-21 Red Estes Invitational 100m 12.32 4th · 1st on team -0.049 PR SR
2025-03-21 Red Estes Invitational 200m 25.38 4th · 1st on team -0.049 PR SR
2025-03-08 Sac State HS Classic 100m 12.64 11th · 2nd on team -0.036 PR SR
2025-03-01 Glenn Poole Invitational 100m 13.22 6th · 2nd on team -0.033 SR
2025-02-22 Elk Grove Time Trial 200m 27.2 3rd · 2nd on team -0.041 SR
2025-02-08 CA Winter State Track & Field Championships 150m 19.39 54th · 1st on team -0.046
2025-02-08 CA Winter State Track & Field Championships 60m 8.16 90th · 1st on team -0.046
2025-01-25 CA Winter Championships Qualifier 150m 19.33 5th · 3rd on team -0.033 PR SR
2025-01-25 CA Winter Championships Qualifier 60m 8.01 4th · 3rd on team -0.033 PR SR

2024 TF

Playmakers Elite (CA) · Grade 10

Date Meet Event Result Place Rating Difficulty PR/SR Flags
2024-06-23 USATF Pacific Association Junior Olympic Championships 200m 27.34 23rd · 5th on team -0.035
2024-06-23 USATF Pacific Association Junior Olympic Championships 100m 13.31 27th · 5th on team -0.035
2024-06-09 Nor-Cal Youth Championships 100m 14.18 18th · 3rd on team -0.043
2024-05-11 Speed Track Series Meet 3 100m 12.86 1st · 1st on team -0.030
2024-05-09 CIF-SJS Division I Championships Finals 200m 27.01 22nd · 3rd on team -0.028
2024-05-09 CIF-SJS Division I Championships Finals 100m 13.09 24th · 3rd on team -0.028
2024-04-30 Delta League Varsity & Frosh/Soph Championships Finals 100m 12.74 4th · 3rd on team -0.041
2024-04-30 Delta League Varsity & Frosh/Soph Championships Finals 200m 26.22 8th · 2nd on team -0.041
2024-04-30 Delta League Varsity & Frosh/Soph Championships Finals 200m 26.85 16th · 4th on team -0.041
2024-04-30 Delta League Varsity & Frosh/Soph Championships Finals 100m 12.81 5th · 4th on team -0.041
2024-04-27 Delta League Varsity & Frosh/Soph Championships Trials 100m 12.74 2nd · 2nd on team -0.041 PR SR
2024-04-27 Delta League Varsity & Frosh/Soph Championships Trials 200m 26.22 5th · 1st on team -0.041 PR SR
2024-04-17 Delta League Center Meet #2 100m 12.86 7th · 3rd on team -0.034 PR SR
2024-04-06 Herd Roundup 200m 27.14 9th · 2nd on team -0.041 PR SR
2024-04-06 Herd Roundup 100m 13.44 4th · 3rd on team -0.041
2024-03-21 Delta League Center Meet #1 200m 27.15 5th · 1st on team -0.041 PR SR
2024-03-21 Delta League Center Meet #1 100m 13.17 8th · 3rd on team -0.041 PR SR
2024-03-09 Sturgeon Invite @ Granite Bay HS 100m 13.32 11th · 2nd on team -0.033 PR SR
2024-03-09 Sturgeon Invite @ Granite Bay HS 200m 27.7 13th · 1st on team -0.033
2024-03-02 Sac State HS Classic 400m 1:07.47 29th · 1st on team -0.036
2024-03-02 Sac State HS Classic 200m 27.3 19th · 1st on team -0.036 PR SR
2024-02-24 Glenn Poole Invitational 400m 1:04.54 7th · 1st on team -0.033 SR
2024-02-17 Elk Grove / Cosumnes Oaks / Laguna Creek Time Trial 200m 28 1st · 1st on team -0.041 SR
2024-02-17 Elk Grove / Cosumnes Oaks / Laguna Creek Time Trial 100m 13.74 3rd · 2nd on team -0.041 SR

2023 TF

Cosumnes Oaks (CA) · Grade 9

Date Meet Event Result Place Rating Difficulty PR/SR Flags
2023-04-15 Sturgeon Invite @ Granite Bay HS 200m 27.95 16th · 1st on team -0.033 PR SR
2023-04-15 Sturgeon Invite @ Granite Bay HS 400m 1:04.72 18th · 1st on team -0.033
2023-04-12 Delta League Center Meet #2 200m 28.14 5th · 2nd on team -0.032 PR SR
2023-04-12 Delta League Center Meet #2 100m 13.65 4th · 3rd on team -0.032 PR SR
2023-04-08 Herd Roundup 200m 28.43 6th · 1st on team -0.041 PR SR
2023-04-08 Herd Roundup 400m 1:04.41 6th · 1st on team -0.041 PR SR
2023-03-22 Delta League Center Meet #1 100m 13.8 2nd · 1st on team -0.034 PR SR
2023-03-22 Delta League Center Meet #1 200m 29.1 5th · 2nd on team -0.034
2023-03-17 Gateway to Track and Field Invitational 400m 1:06.54 30th · 2nd on team -0.049 PR SR
2023-03-17 Gateway to Track and Field Invitational 200m 28.84 36th · 4th on team -0.049 PR SR
2023-02-25 Glenn Poole Invitational 200m 32.78 35th · 3rd on team -0.033
2023-02-18 Elk Grove / Cosumnes Oaks / Laguna Creek Time Trial 400m 1:08.5 1st · 1st on team -0.041 PR SR
2023-02-18 Elk Grove / Cosumnes Oaks / Laguna Creek Time Trial 200m 30.05 3rd · 2nd on team -0.041 PR SR

2017 TF

RPM Legacy (CA) · Grade -

Date Meet Event Result Place Rating Difficulty PR/SR Flags
2017-06-03 M.P. Striders USATF PA Youth Sectionals lj 3.54m -0.033
2017-06-03 M.P. Striders USATF PA Youth Sectionals 400m 1:14.19 10th · 1st on team -0.033 PR SR
2017-06-03 M.P. Striders USATF PA Youth Sectionals 200m 34.08 22nd · 1st on team -0.033 PR SR
2017-04-29 RETC USATF PA Youth T&F lj 2.52m -0.032
2017-04-29 RETC USATF PA Youth T&F 200m 37.16 42nd · 1st on team -0.032
2017-04-29 RETC USATF PA Youth T&F 100m 16.37 27th · 1st on team -0.032 PR SR
2017-04-22 Shor/Sheppard USATF PA Youth T&F 400m 1:29.91 45th · 2nd on team -0.046 PR SR
2017-04-22 Shor/Sheppard USATF PA Youth T&F 200m 36.32 31st · 1st on team -0.046 PR SR
2017-04-22 Shor/Sheppard USATF PA Youth T&F 100m 16.44 26th · 1st on team -0.046 PR SR